Dixon, IL (61021)

7:26 AM CDT on October 20, 2014 (GMT -0500)
South Side | Change Station
CLOSE
Current Station
Personal Weather Station
Location: Dixon, IL
Elevation: 702 ft
Nearby Weather Stations

Elev 702 ft 41.84 °N, 89.49 °W | Updated 2 seconds ago

Clear
Clear
43.0 °F
Feels Like 43 °F
N
0.0
Wind Variable Wind from WSW
Gusts 0.0 mph

Today
High -- | Low -- °F
--% Chance of Precip.
Yesterday
High -- | Low -- °F
Precip. -- in
7:16 AM 6:08 PM
Waning Crescent, 11% visible
Pressure 29.86 in
Visibility 10.0 miles
Clouds Clear
Windchill 43 °F
Dew Point 42 °F
Humidity 95%
Rainfall 0.00 in
Snow Depth Not available.
UV 0 out of 12
Pollen 1.80 out of 12
Air Quality Not available.
Flu Activity No Activity
METAR KSQI 201215Z AUTO 29008KT 10SM CLR 07/M01 A2986 RMK AO1

More Conditions Fewer Conditions

Pressure 29.86 in
Visibility 10.0 miles
Clouds Clear
Windchill 43 °F
Dew Point 42 °F
Humidity 95%
Rainfall 0.00 in
Snow Depth Not available.
UV 0 out of 12
Pollen 1.80 out of 12
Air Quality Not available.
Flu Activity No Activity
METAR KSQI 201215Z AUTO 29008KT 10SM CLR 07/M01 A2986 RMK AO1

More Conditions Fewer Conditions

10-Day Weather Forecast

Almanac

Astronomy

Oct. 20, 2014 Rise Set
Actual Time 7:16 AM CDT 6:08 PM CDT
Civil Twilight 6:47 AM CDT 6:37 PM CDT
Nautical Twilight 6:15 AM CDT 7:09 PM CDT
Astronomical Twilight 5:43 AM CDT 7:41 PM CDT
Moon 4:01 AM CDT 4:33 PM CDT
Length of Visible Light 11h 49m
Length of Day
10h 52m
Waning Crescent, 11% of the Moon is Illuminated
Today
Waning Crescent
Oct 23
New
Oct 30
First Quarter
Nov 6
Full
Nov 14
Last Quarter

Today's Extremes

State Highs State Lows

Community

WunderPhotos

Upload Photos

1,763,349 photos uploaded!

WunderBlogs® & News

Nearby

Snow Depth

Station Depth Elevation
No new snow has been reported.

Earthquake Activity

City Distance Mag. Time & Date
No recent earthquake activity has been reported nearby.
Minimum magnitude displayed is 2.5.

Coastal Water Temperatures

Place Temperature
No Stations Reporting

Nearby Weather Stations